WEATHER DATA

TODAY
Time Temp. Dewp. Hum. Wind dir Wind speed Wind gust Bar. 1h Prec. 24h Prec.
00:06 15.8 13.6 87 302 0.3 1.4 1014.9 0.0000 0.0000
00:16 15.8 13.6 87 307 0.3 1.1 1014.9 0.0000 0.0000
00:26 15.8 13.6 87 270 0.3 0.8 1014.8 0.0000 0.0000
00:35 15.7 13.5 87 296 0.6 0.8 1014.8 0.0000 0.0000
00:46 15.6 13.6 88 301 0.6 1.1 1014.8 0.0000 0.0000
00:56 15.5 13.5 88 299 0.6 1.1 1014.7 0.0000 0.0000
01:06 15.5 13.7 89 270 0.3 1.1 1014.8 0.0000 0.0000
01:16 15.4 13.6 89 225 0.6 1.7 1014.8 0.0000 0.0000
01:26 15.2 13.2 88 254 0.6 1.9 1014.8 0.0000 0.0000
01:36 15.1 13.1 88 227 0.8 2.2 1014.8 0.0000 0.0000
01:46 15 12.9 87 247 0.6 1.7 1014.8 0.0000 0.0000
01:57 15 12.9 87 250 0.6 1.7 1014.7 0.0000 0.0000
02:06 14.9 12.6 86 253 0.6 1.1 1014.6 0.0000 0.0000
02:16 14.9 12.4 85 251 0.6 2.2 1014.5 0.0000 0.0000
02:27 14.8 12.1 84 250 0.8 2.5 1014.7 0.0000 0.0000
02:37 14.6 11.9 84 225 0.8 1.9 1014.8 0.4800 0.5000
02:47 14.3 11.6 84 270 0.8 1.9 1014.7 0.6400 0.6000
02:57 14 11.5 85 248 0.6 1.4 1015 0.6400 0.6000
03:07 13.9 11.6 86 237 0.6 1.4 1015.1 0.8000 0.8000
03:17 13.9 11.8 87 270 0.3 0.8 1014.9 0.8000 0.8000
03:27 13.7 11.6 87 221 0.3 0.8 1014.9 0.9600 1.1000
03:37 13.6 11.5 87 270 0.3 0.8 1014.9 1.1210 1.8000
03:47 13.5 11.6 88 180 0.6 1.4 1014.7 1.7630 2.4000
03:57 13.4 11.5 88 254 0.6 1.4 1014.7 1.9230 2.6000
04:07 13.3 11.4 88 294 0.6 1.4 1014.8 1.7630 2.6000
04:18 13.2 11.4 89 270 0.6 1.7 1014.8 1.6030 2.6000
04:27 13.1 11.3 89 252 0.6 1.4 1014.6 0.9620 2.6000
04:37 13 11.2 89 240 0.3 1.4 1014.5 0.6410 2.7000
04:48 13 11.2 89 270 0.3 1.1 1014.6 0.3200 2.7000
04:58 12.9 11.1 89 229 0.3 0.8 1014.6 0.1600 2.7000
05:07 12.9 11.3 90 270 0.3 0.8 1014.7 0.1600 2.7000
05:17 12.9 11.3 90 230 0.3 0.8 1014.6 0.1600 2.7000
05:28 12.9 11.3 90 210 0.6 1.1 1014.6 0.1600 2.7000
05:38 12.9 11.3 90 226 0.8 1.4 1014.5 0.0000 2.7000
05:48 12.9 11.3 90 222 0.6 1.1 1014.5 0.0000 2.7000
05:58 12.9 11.3 90 225 0.6 1.7 1014.6 0.0000 2.7000
06:08 12.9 11.3 90 229 0.6 1.1 1014.4 0.0000 2.7000
06:18 12.9 11.3 90 225 0.6 1.4 1014.3 0.0000 2.7000
06:28 12.9 11.3 90 216 0.6 1.4 1014.3 0.0000 2.7000
06:38 12.8 11.2 90 228 0.8 1.4 1014.4 0.0000 2.7000
06:48 12.8 11.2 90 225 0.3 0.6 1014.5 0.0000 2.7000
06:58 12.9 11.3 90 270 0.3 0.6 1014.6 0.0000 2.7000
07:08 12.8 11.4 91 270 0.3 0.8 1014.6 0.0000 2.7000
07:18 12.8 11.4 91 214 0.6 1.1 1014.5 0.0000 2.7000
07:28 12.8 11.4 91 232 0.6 1.7 1014.5 0.0000 2.7000
07:38 12.8 11.4 91 215 0.6 1.4 1014.6 0.0000 2.7000
07:49 12.8 11.4 91 218 0.6 1.4 1014.7 0.0000 2.7000
07:58 12.8 11.4 91 236 0.6 1.4 1014.6 0.0000 2.7000
08:08 12.8 11.4 91 229 0.6 1.1 1014.8 0.0000 2.7000
08:19 12.8 11.4 91 237 0.6 1.4 1015.1 0.0000 2.7000
08:29 12.9 11.5 91 270 0.3 0.8 1015.1 0.0000 2.7000
08:39 12.9 11.5 91 270 0.3 0.8 1015.1 0.0000 2.7000
08:48 12.9 11.5 91 270 0.3 0.6 1015.1 0.0000 2.7000
08:59 13 11.6 91 217 0.6 1.1 1015.1 0.0000 2.7000
09:09 12.9 11.5 91 233 0.6 1.4 1015.2 0.0000 2.7000
09:19 13 11.6 91 217 0.3 0.6 1015.2 0.0000 2.7000
09:29 13 11.6 91 270 0.3 0.8 1015.2 0.0000 2.7000
09:39 13.1 11.7 91 270 0.3 0.8 1015.3 0.0000 2.7000
09:49 13.2 11.8 91 270 0.3 1.1 1015.3 0.0000 2.7000
09:59 13.4 12 91 270 0.6 1.9 1015.5 0.0000 2.7000
10:09 13.5 11.9 90 270 0.6 1.4 1015.5 0.0000 2.7000
10:19 13.6 11.8 89 251 0.6 1.4 1015.6 0.0000 2.7000
10:29 13.6 11.8 89 240 0.6 1.4 1015.7 0.0000 2.7000
10:40 13.6 11.7 88 270 0.6 1.4 1015.8 0.0000 2.7000
10:50 13.7 11.6 87 240 0.6 1.1 1015.9 0.0000 2.7000
10:59 13.9 11.8 87 239 0.6 1.1 1015.9 0.0000 2.7000
11:09 14.1 11.6 85 250 0.6 1.4 1016 0.0000 2.7000
11:20 14.2 11.5 84 209 0.6 1.7 1016 0.0000 2.7000
11:30 14.5 11.7 83 253 0.6 1.4 1016 0.0000 2.7000
11:39 14.7 11.7 82 161 0.6 1.1 1016 0.0000 2.7000
11:50 14.9 11.7 81 270 0.3 1.1 1016 0.0000 2.7000
12:00 15.2 12 81 198 0.3 0.8 1016.1 0.0000 2.7000
12:10 15.2 11.6 79 270 0.3 0.8 1016 0.0000 2.7000
12:20 15.4 11.6 78 270 0.6 1.4 1016 0.0000 2.7000
12:30 15.5 11.5 77 270 0.3 1.1 1016.1 0.0000 2.7000
12:40 15.7 11.7 77 231 0.3 1.4 1016.2 0.0000 2.7000
12:50 15.9 11.9 77 135 0.3 1.1 1016.2 0.0000 2.7000
13:10 16.3 11.7 74 270 0.3 0.6 1016.1 0.0000 2.7000
13:21 16.9 12 73 126 0.3 1.1 1015.9 0.0000 2.7000
13:31 17.4 11.4 68 270 0.6 1.9 1015.8 0.0000 2.7000
13:41 17.7 11 65 296 0.8 1.7 1015.8 0.0000 2.7000
13:51 17.8 11.4 66 168 0.6 1.9 1015.8 0.0000 2.7000
14:01 18 11.8 67 140 0.6 1.4 1015.9 0.0000 2.7000
14:11 18.4 11.9 66 198 0.3 1.4 1015.8 0.0000 2.7000
14:21 18.9 12.2 65 270 0.3 1.4 1015.8 0.0000 2.7000
14:32 19.2 11.5 61 288 0.6 1.7 1015.7 0.0000 2.7000
14:41 19.4 11.2 59 288 0.6 2.2 1015.7 0.0000 2.7000
14:51 19.9 11.7 59 203 0.6 1.9 1015.6 0.0000 2.7000
14:56 19.9 11.1 57 270 0.8 2.2 1015.5 0.0000 2.7000
15:07 19.8 11 57 234 0.6 1.7 1015.3 0.0000 2.7000
15:17 20.2 11.4 57 135 0.6 1.9 1015.2 0.0000 2.7000
15:26 20.7 11.6 56 233 0.6 1.9 1015.1 0.0000 2.7000
15:36 20.5 11.2 55 202 0.6 1.4 1015 0.0000 2.7000
15:47 20.9 11 53 270 0.6 1.4 1014.9 0.0000 2.7000
15:57 20.8 10.3 51 312 0.8 1.9 1014.9 0.0000 2.7000
16:07 20.9 11 53 240 0.6 1.4 1014.9 0.0000 2.7000
16:17 20.7 10.5 52 270 0.6 1.9 1015 0.0000 2.7000
16:27 20.5 10.9 54 284 0.8 2.5 1015 0.0000 2.7000
16:37 19.9 10.3 54 270 0.8 2.5 1015 0.0000 2.7000
16:45 19.7 10.4 55 270 0.8 2.5 1014.9 0.0000 2.7000
17:04 18.8 10.4 58 315 0.8 3.9 1015.1 0.0000 2.7000
17:15 18.6 10.7 60 315 0.8 3.9 1015.1 0.0000 2.7000
17:25 18.9 11 60 290 1.1 2.2 1015.1 0.0000 2.7000
17:34 18.8 10.6 59 270 1.1 3.9 1015.2 0.0000 2.7000
17:45 18.4 10.8 61 287 1.1 2.2 1015.5 0.0000 2.7000
17:55 18.1 10.2 60 287 1.1 2.2 1015.5 0.0000 2.7000
18:05 17.9 10 60 287 1.1 2.2 1015.6 0.0000 2.7000
18:21 17.7 10.3 62 287 1.1 2.2 1015.7 0.0000 2.7000
18:31 17.7 10.3 62 254 0.8 2.5 1015.8 0.0000 2.7000
18:41 17.6 10.2 62 246 0.6 1.4 1015.9 0.0000 2.7000
18:51 17.5 10.4 63 280 1.1 3.1 1016 0.0000 2.7000
19:01 17.3 10 62 270 1.1 3.6 1016.1 0.0000 2.7000
19:11 17.1 10 63 287 1.1 2.8 1016.1 0.0000 2.7000
19:21 17 10.1 64 250 1.1 2.5 1016.2 0.0000 2.7000
19:31 16.9 10.1 64 225 0.8 2.5 1016.4 0.0000 2.7000
19:42 16.8 10 64 150 0.6 2.2 1016.5 0.0000 2.7000
19:51 16.6 9.8 64 210 0.6 1.9 1016.5 0.0000 2.7000
20:01 16.4 9.8 65 228 0.8 2.8 1016.6 0.0000 2.7000
20:12 16.1 9.5 65 225 0.6 1.9 1016.7 0.0000 2.7000
20:22 15.9 9.6 66 251 0.6 1.7 1016.9 0.0000 2.7000
20:31 15.8 9.5 66 237 0.8 1.7 1017 0.0000 2.7000
20:42 15.6 9.5 67 241 0.8 2.2 1017.1 0.0000 2.7000

DAY STATISTIC

2021-09-18
TEMPERATURE
AVERAGE
15.5
HIGH
20.9
15:47
LOW
12.8
06:38
PRESSURE
AVERAGE
1015.3
HIGH
1017.1
20:42
LOW
1014.3
06:18
DEWPOINT
AVERAGE
11.4
HIGH
13.7
01:06
LOW
9.5
20:12
HUMIDITY
AVERAGE
78
HIGH
91
07:08
LOW
51
15:57
WIND SPEED
AVERAGE
0.6
HIGH
1.1
17:25
WIND GUST
AVERAGE
1.6
HIGH
3.9
17:04
WIND DIRECTION
PREVAILING
W
46.7%
N
0.0
NE
0.0
E
0.0
SE
4.1
S
5.7
SW
35.2
W
46.7
NW
8.2
PRECIPITATION
RAIN HOUR
1.9
RAIN DAY
2.7
TEMPERATURE (°C)
LOW
12.8
HIGH
20.9
AVERAGE
15.5
PRESSURE (hpa)
LOW
1014.3
HIGH
1017.1
AVERAGE
1015.3
DEVICE